Mocanaqua, Pennsylvania
Current Conditions -  °F | °C
As of 8:35 AM on Friday 28 Nov 2014 (Local Time) from KHZL Reporting Station
Overcast Overcast  
Wind Chill: -6°   Ceiling: 1500
Heat Index: -2°   Visibility: 10mi
Dew Point: -6°   Wind: 8mph
Humidity: 74%   Direction: 290°WNW
Pressure: 30.17"   Gusts: NA
Location:  41.1968°N, 76.1956°W
Report Text: KHZL 281335Z AUTO 29007KT 10SM BKN015 OVC049 M02/M06 A3017 RMK AO2
Loading
Personal Weather Stations






























Interactive Weather Map New forecast layout! Learn more

10-Day Weather Forecast

Advertisements
Track Severe Weather on mobile